Time;durP1;ratioP1;P1;durP2;ratioP2;P2;SDS_P1;SDS_P2;PMS_P1;PMS_P2;Temp;Humidity;BMP_temperature;BMP_pressure;BME280_temperature;BME280_humidity;BME280_pressure;Samples;Min_cycle;Max_cycle;Signal;HPM_P1;HPM_P2
2022/09/12 00:01:20;;;;;;;23.88;13.55;;;;;;;26.96;77.99;97995.03;4843049;29;20410;-75
2022/09/12 00:04:10;;;;;;;21.20;13.32;;;;;;;26.98;77.64;98003.78;4865513;29;20041;-75
2022/09/12 00:06:52;;;;;;;20.48;12.60;;;;;;;27.01;77.69;97999.53;4838986;29;20069;-75
2022/09/12 00:09:41;;;;;;;19.80;13.07;;;;;;;26.93;77.72;98006.75;4856638;29;20128;-75
2022/09/12 00:12:23;;;;;;;20.55;13.00;;;;;;;26.93;77.76;98006.75;4866431;29;20421;-75
2022/09/12 00:15:12;;;;;;;18.35;13.32;;;;;;;26.89;78.00;98000.31;4874425;29;20045;-75
2022/09/12 00:18:01;;;;;;;24.65;15.02;;;;;;;27.00;77.96;98000.69;4859930;29;20051;-75
2022/09/12 00:20:45;;;;;;;19.23;13.27;;;;;;;27.03;77.48;98003.56;4840880;29;20051;-75
2022/09/12 00:23:34;;;;;;;21.80;13.95;;;;;;;27.06;77.26;98004.84;4856120;29;20517;-75
2022/09/12 00:26:29;;;;;;;22.33;13.00;;;;;;;27.04;77.40;98001.63;4856057;29;20081;-75
2022/09/12 00:29:05;;;;;;;19.63;13.30;;;;;;;26.93;78.02;98001.25;4824560;29;20352;-74
2022/09/12 00:32:00;;;;;;;26.38;16.50;;;;;;;27.02;77.48;98010.22;4856335;29;20082;-75
2022/09/12 00:34:36;;;;;;;32.78;22.15;;;;;;;26.99;77.37;98018.38;4856121;29;20077;-74
2022/09/12 00:37:32;;;;;;;39.25;26.98;;;;;;;27.04;77.38;98018.16;4856333;29;20069;-74
2022/09/12 00:40:08;;;;;;;54.10;34.13;;;;;;;26.94;77.33;98014.69;4847994;29;20089;-75
2022/09/12 00:43:04;;;;;;;52.30;35.83;;;;;;;27.02;77.77;98015.75;4869872;29;20056;-75
2022/09/12 00:45:43;;;;;;;56.05;38.45;;;;;;;26.99;77.77;98015.59;4873711;29;20055;-74
2022/09/12 00:48:48;;;;;;;54.45;37.13;;;;;;;26.87;77.61;98000.66;4872472;29;20089;-74
2022/09/12 00:51:47;;;;;;;65.40;39.83;;;;;;;26.87;77.69;98003.41;4869648;29;20049;-73
2022/09/12 00:54:29;;;;;;;58.72;38.67;;;;;;;26.88;77.59;98005.00;4892208;29;20048;-74
2022/09/12 00:57:22;;;;;;;59.83;38.83;;;;;;;26.89;77.90;98011.34;4892041;29;20056;-72
2022/09/12 01:00:18;;;;;;;59.63;39.75;;;;;;;27.02;77.57;98015.75;4887018;29;20068;-74
2022/09/12 01:03:08;;;;;;;65.50;41.63;;;;;;;26.98;77.76;98019.50;4849007;29;20053;-74
2022/09/12 01:06:13;;;;;;;68.18;43.67;;;;;;;26.95;78.12;98018.22;4854987;29;20419;-74
2022/09/12 01:08:58;;;;;;;79.57;46.50;;;;;;;26.99;77.69;98027.41;4854854;29;20061;-74
2022/09/12 01:11:47;;;;;;;75.80;47.00;;;;;;;26.90;77.94;98021.19;4869947;29;20053;-73
2022/09/12 01:14:30;;;;;;;77.68;49.85;;;;;;;26.97;77.91;98029.72;4858449;29;20045;-74
2022/09/12 01:17:20;;;;;;;74.32;48.17;;;;;;;26.92;78.14;98027.97;4876566;29;20057;-74
2022/09/12 01:20:17;;;;;;;67.38;45.58;;;;;;;26.95;78.13;98026.50;4859153;29;20060;-74
2022/09/12 01:23:34;;;;;;;82.80;55.90;;;;;;;27.03;77.89;98028.34;4841935;29;20082;-73
2022/09/12 01:26:51;;;;;;;109.07;68.90;;;;;;;26.68;78.91;98044.41;4855088;29;20050;-74
2022/09/12 01:29:52;;;;;;;120.70;74.43;;;;;;;26.93;78.41;98045.31;4857641;29;20073;-74
2022/09/12 01:33:08;;;;;;;118.95;72.25;;;;;;;26.95;78.36;98051.28;4840513;29;20101;-74
2022/09/12 01:36:23;;;;;;;116.80;73.57;;;;;;;26.64;79.12;98047.00;4854418;29;20045;-74
2022/09/12 01:39:26;;;;;;;126.13;75.43;;;;;;;27.00;78.76;98050.25;4868549;29;20132;-74
2022/09/12 01:42:30;;;;;;;121.95;75.00;;;;;;;27.12;77.92;98044.78;4869053;29;20089;-73
2022/09/12 01:45:50;;;;;;;122.20;73.50;;;;;;;27.13;77.84;98049.97;4874231;29;20863;-73
2022/09/12 01:48:51;;;;;;;120.68;69.35;;;;;;;26.90;78.76;98062.50;4858762;29;20061;-74
2022/09/12 01:52:00;;;;;;;111.28;69.00;;;;;;;27.06;77.44;98074.50;4828392;29;20049;-74
2022/09/12 01:55:05;;;;;;;102.70;63.05;;;;;;;27.39;77.15;98070.16;4850927;29;20049;-74
2022/09/12 01:58:21;;;;;;;105.22;63.08;;;;;;;26.96;77.48;98069.38;4878961;29;20049;-73
2022/09/12 02:01:21;;;;;;;97.60;64.70;;;;;;;27.23;77.08;98059.75;4843056;29;20057;-73
2022/09/12 02:04:43;;;;;;;112.20;66.38;;;;;;;27.70;75.93;98064.91;4844124;29;20853;-75
2022/09/12 02:07:59;;;;;;;109.07;65.75;;;;;;;27.87;75.40;98066.63;4838278;29;20056;-73
2022/09/12 02:11:06;;;;;;;98.30;62.75;;;;;;;27.83;75.35;98051.94;4830727;29;20053;-72
2022/09/12 02:14:05;;;;;;;96.18;57.17;;;;;;;27.65;75.09;98061.56;4843740;29;20053;-74
2022/09/12 02:17:21;;;;;;;77.55;54.35;;;;;;;28.26;73.66;98060.78;4861581;29;20313;-73
2022/09/12 02:20:26;;;;;;;79.90;51.10;;;;;;;28.14;74.55;98053.31;4858984;29;20057;-74
2022/09/12 02:23:30;;;;;;;67.95;49.30;;;;;;;28.28;73.36;98064.81;4871060;29;20060;-74
2022/09/12 02:26:41;;;;;;;75.82;50.78;;;;;;;28.13;73.63;98057.25;4863273;29;20397;-73
2022/09/12 02:29:23;;;;;;;;;;;;;;;27.96;74.27;98061.03;4860258;29;20053;-73
2022/09/12 02:32:32;;;;;;;79.22;50.70;;;;;;;28.18;74.27;98061.72;4846240;29;19924;-76
2022/09/12 02:35:40;;;;;;;85.82;55.10;;;;;;;28.53;72.90;98058.44;4859806;29;20049;-75
2022/09/12 02:38:36;;;;;;;90.57;58.10;;;;;;;28.44;72.93;98064.88;4868715;29;20705;-75
2022/09/12 02:41:26;;;;;;;84.93;58.10;;;;;;;28.92;72.32;98059.59;4878085;29;20052;-73
2022/09/12 02:44:09;;;;;;;96.40;59.83;;;;;;;29.09;70.91;98064.81;4876624;29;20054;-75
2022/09/12 02:47:25;;;;;;;95.07;62.55;;;;;;;28.29;73.24;98060.88;4874551;29;20057;-75
2022/09/12 02:50:15;;;;;;;95.22;62.55;;;;;;;28.16;73.29;98051.03;4845578;29;20050;-73
2022/09/12 02:53:13;;;;;;;100.35;64.88;;;;;;;29.01;71.68;98053.94;4847899;29;20089;-74
2022/09/12 02:56:13;;;;;;;98.40;59.35;;;;;;;28.42;72.98;98058.13;4841700;29;20057;-73
2022/09/12 02:59:07;;;;;;;94.65;58.92;;;;;;;28.49;72.94;98052.81;4840916;29;20140;-74
2022/09/12 03:02:21;;;;;;;82.07;52.15;;;;;;;29.33;71.69;98046.53;4857357;29;20149;-74
2022/09/12 03:05:13;;;;;;;64.03;41.78;;;;;;;29.76;69.17;98042.09;4823274;29;20783;-74
2022/09/12 03:08:20;;;;;;;55.22;34.42;;;;;;;29.57;67.09;98047.53;4824662;29;20566;-73
2022/09/12 03:11:05;;;;;;;50.10;32.03;;;;;;;29.58;67.09;98054.66;4823424;29;20058;-74
2022/09/12 03:14:43;;;;;;;58.55;32.75;;;;;;;29.97;67.09;98063.94;4825630;29;20060;-75
2022/09/12 03:17:51;;;;;;;48.20;31.23;;;;;;;30.18;65.85;98062.84;4763717;30;20059;-73
2022/09/12 03:21:26;;;;;;;44.45;29.40;;;;;;;30.02;67.35;98073.97;4862449;29;20166;-74
2022/09/12 03:24:43;;;;;;;46.70;27.98;;;;;;;30.32;66.30;98092.84;4819561;29;20369;-73
2022/09/12 03:27:46;;;;;;;39.22;22.92;;;;;;;29.85;66.93;98083.44;4836978;29;20113;-74
2022/09/12 03:30:28;;;;;;;34.90;21.00;;;;;;;30.02;67.88;98083.06;4849240;29;20148;-73
2022/09/12 03:33:22;;;;;;;30.75;21.13;;;;;;;30.28;67.69;98089.16;4844339;29;20045;-74
2022/09/12 03:36:04;;;;;;;29.15;19.10;;;;;;;30.57;66.09;98085.91;4862845;29;20576;-74
2022/09/12 03:38:53;;;;;;;36.53;18.55;;;;;;;30.22;66.76;98091.41;4863122;29;20125;-73
2022/09/12 03:41:37;;;;;;;30.30;18.10;;;;;;;30.54;66.63;98092.16;4856424;29;20674;-73
2022/09/12 03:44:29;;;;;;;27.13;17.02;;;;;;;30.74;66.13;98097.72;4855576;29;20053;-73
2022/09/12 03:47:11;;;;;;;20.55;15.23;;;;;;;30.87;65.50;98092.84;4854076;29;20140;-73
2022/09/12 03:50:00;;;;;;;25.60;16.65;;;;;;;30.40;67.43;98097.38;4823681;29;20523;-74
2022/09/12 03:52:42;;;;;;;22.42;15.70;;;;;;;30.77;65.81;98088.69;4836610;29;20137;-74
2022/09/12 03:55:37;;;;;;;25.13;15.73;;;;;;;30.56;65.42;98089.03;4832925;29;20560;-74
2022/09/12 03:58:30;;;;;;;20.77;15.35;;;;;;;30.78;65.54;98095.84;4854603;29;20041;-74
2022/09/12 04:01:24;;;;;;;23.25;15.27;;;;;;;31.06;65.31;98084.56;4838809;29;20065;-73
2022/09/12 04:04:06;;;;;;;;;;;;;;;31.16;62.06;98086.72;4825928;29;20140;-73
2022/09/12 04:06:54;;;;;;;15.98;12.82;;;;;;;31.28;62.77;98090.50;4846952;29;20023;-72
2022/09/12 04:09:38;;;;;;;19.00;14.65;;;;;;;31.08;62.28;98089.75;4836683;29;20157;-72
2022/09/12 04:12:26;;;;;;;17.08;13.98;;;;;;;31.68;61.26;98087.34;4836855;29;20129;-73
2022/09/12 04:15:15;;;;;;;20.00;13.32;;;;;;;31.28;60.61;98091.34;4837144;29;20166;-73
2022/09/12 04:18:05;;;;;;;20.73;13.77;;;;;;;30.89;62.82;98101.59;4826809;29;20077;-72
2022/09/12 04:20:47;;;;;;;20.50;14.07;;;;;;;31.53;62.02;98091.81;4855374;29;20141;-74
2022/09/12 04:23:36;;;;;;;22.35;13.80;;;;;;;31.86;61.58;98095.16;4853710;29;20064;-74
2022/09/12 04:26:16;;;;;;;17.67;13.57;;;;;;;31.76;61.34;98091.84;4841802;29;20057;-71
2022/09/12 04:29:05;;;;;;;27.88;13.43;;;;;;;32.35;58.53;98088.78;4853768;29;20907;-71
2022/09/12 04:31:50;;;;;;;19.77;12.90;;;;;;;32.34;58.92;98089.97;4853832;29;20049;-72
2022/09/12 04:34:53;;;;;;;18.98;13.52;;;;;;;32.66;57.52;98092.44;4839303;29;20057;-72
2022/09/12 04:37:35;;;;;;;21.00;14.10;;;;;;;32.22;58.09;98084.63;4840639;29;20053;-72
2022/09/12 04:40:24;;;;;;;21.30;13.57;;;;;;;33.40;55.94;98085.38;4838476;29;20046;-71
2022/09/12 04:43:15;;;;;;;23.73;14.35;;;;;;;33.82;56.87;98092.56;4853116;29;20438;-72
2022/09/12 04:46:10;;;;;;;17.17;12.80;;;;;;;33.80;53.84;98094.94;4857107;29;20477;-72
2022/09/12 04:48:54;;;;;;;19.83;13.15;;;;;;;34.03;54.02;98092.75;4837051;29;20052;-72
2022/09/12 04:51:45;;;;;;;19.05;13.82;;;;;;;33.60;53.29;98081.22;4810290;29;20118;-72
2022/09/12 04:54:40;;;;;;;18.02;13.05;;;;;;;34.36;53.34;98079.88;4844869;29;20052;-71
2022/09/12 04:57:16;;;;;;;18.98;12.93;;;;;;;34.28;53.40;98081.00;4855142;29;20053;-71
2022/09/12 05:00:06;;;;;;;17.92;12.98;;;;;;;34.43;53.92;98077.16;4870497;29;20088;-73
2022/09/12 05:02:50;;;;;;;19.42;13.65;;;;;;;34.95;53.68;98076.19;4837601;29;20110;-72
2022/09/12 05:05:45;;;;;;;61.72;14.70;;;;;;;35.52;49.71;98076.38;4842506;29;20164;-74
2022/09/12 05:08:44;;;;;;;20.30;13.05;;;;;;;34.94;50.38;98075.41;4880144;29;20498;-75
2022/09/12 05:11:51;;;;;;;19.05;12.93;;;;;;;35.75;51.49;98069.63;4885908;29;20051;-76
2022/09/12 05:15:11;;;;;;;22.77;13.43;;;;;;;35.14;50.68;98070.31;4873409;29;20050;-78
2022/09/12 05:18:20;;;;;;;18.17;12.75;;;;;;;35.33;49.67;98071.16;4873652;29;20084;-77
2022/09/12 05:21:26;;;;;;;15.23;12.85;;;;;;;35.46;50.45;98066.78;4863459;29;20048;-75
2022/09/12 05:24:38;;;;;;;22.48;14.40;;;;;;;34.91;53.52;98053.88;4874258;29;20049;-77
2022/09/12 05:27:42;;;;;;;18.45;13.80;;;;;;;35.65;50.90;98049.66;4864254;29;20118;-80
2022/09/12 05:31:28;;;;;;;22.95;14.30;;;;;;;36.31;50.39;98040.09;4868786;29;20140;-80
2022/09/12 05:34:37;;;;;;;17.75;15.05;;;;;;;35.82;50.73;98036.16;4847923;29;20454;-80
2022/09/12 05:37:43;;;;;;;20.17;14.85;;;;;;;36.10;53.67;98029.75;4851104;29;20143;-80
2022/09/12 05:40:51;;;;;;;15.95;13.73;;;;;;;36.43;50.33;98025.69;4854310;29;20536;-81
2022/09/12 05:44:03;;;;;;;22.20;14.20;;;;;;;36.56;51.30;98025.25;4873649;29;20128;-77
2022/09/12 05:47:05;;;;;;;19.83;15.05;;;;;;;36.60;51.03;98020.44;4852414;29;20462;-78
2022/09/12 05:50:16;;;;;;;20.95;15.35;;;;;;;36.31;49.04;98014.94;4868543;29;20040;-74
2022/09/12 05:53:27;;;;;;;22.52;15.40;;;;;;;36.60;49.29;98023.25;4868398;29;20789;-77
2022/09/12 05:56:47;;;;;;;19.95;15.80;;;;;;;36.39;51.34;98015.72;4849940;29;20053;-76
2022/09/12 06:00:00;;;;;;;23.92;15.07;;;;;;;36.34;49.60;98016.13;4861870;29;20159;-78
2022/09/12 06:03:08;;;;;;;20.33;15.20;;;;;;;36.00;51.59;98000.63;4863574;29;20519;-77
2022/09/12 06:06:13;;;;;;;21.83;16.15;;;;;;;35.89;50.48;98002.66;4863917;29;20053;-78
2022/09/12 06:09:24;;;;;;;20.95;15.55;;;;;;;36.37;49.72;97998.56;4873980;29;20056;-77
2022/09/12 06:12:29;;;;;;;18.63;15.85;;;;;;;36.49;48.98;97997.31;4868310;29;20136;-77
2022/09/12 06:15:40;;;;;;;20.85;16.60;;;;;;;35.98;52.47;97996.63;4868461;29;20141;-75
2022/09/12 06:18:49;;;;;;;18.88;15.68;;;;;;;36.63;48.21;97991.66;4842569;29;20052;-75
2022/09/12 06:22:03;;;;;;;23.25;16.45;;;;;;;36.57;48.85;97987.69;4848673;29;20076;-70
2022/09/12 06:25:07;;;;;;;21.88;16.45;;;;;;;36.12;49.87;97988.22;4859641;29;20132;-71
2022/09/12 06:28:16;;;;;;;24.70;16.45;;;;;;;35.99;51.41;97995.44;4871260;29;20099;-71
2022/09/12 06:31:26;;;;;;;22.98;16.20;;;;;;;36.40;49.84;97984.59;4870446;29;20056;-71
2022/09/12 06:34:38;;;;;;;19.63;15.18;;;;;;;36.40;47.96;97981.78;4874917;29;20080;-71
2022/09/12 06:37:44;;;;;;;19.95;16.33;;;;;;;36.35;50.04;97987.78;4863857;29;20072;-72
2022/09/12 06:40:54;;;;;;;21.02;15.75;;;;;;;36.47;48.94;97977.38;4861218;29;20053;-71
2022/09/12 06:44:05;;;;;;;25.65;16.98;;;;;;;35.66;50.47;97977.91;4867229;29;20102;-71
2022/09/12 06:47:21;;;;;;;23.60;16.92;;;;;;;36.64;50.57;97976.50;4859196;29;20057;-72
2022/09/12 06:50:29;;;;;;;28.20;16.50;;;;;;;36.38;49.61;97972.19;4873428;29;20053;-72
2022/09/12 06:53:39;;;;;;;23.48;15.90;;;;;;;36.53;50.10;97967.34;4874753;29;20136;-72
2022/09/12 06:56:54;;;;;;;16.65;14.90;;;;;;;36.41;49.46;97972.19;4863370;29;20073;-71
2022/09/12 06:59:50;;;;;;;22.73;16.77;;;;;;;36.30;51.16;97967.84;4875711;29;20584;-70
2022/09/12 07:02:59;;;;;;;19.05;16.98;;;;;;;36.41;48.92;97963.81;4864096;29;20057;-72
2022/09/12 07:06:01;;;;;;;20.73;17.13;;;;;;;36.65;49.75;97964.16;4871928;29;20152;-72
2022/09/12 07:09:15;;;;;;;21.02;16.27;;;;;;;36.66;48.59;97962.13;4859636;29;20049;-73
2022/09/12 07:12:25;;;;;;;26.55;17.75;;;;;;;35.55;48.75;97954.78;4847501;29;20053;-72
2022/09/12 07:15:36;;;;;;;23.88;16.98;;;;;;;36.23;49.35;97954.69;4857156;29;20052;-70
2022/09/12 07:18:40;;;;;;;22.42;16.73;;;;;;;36.43;47.22;97955.81;4866851;29;20059;-70
2022/09/12 07:21:51;;;;;;;23.27;16.95;;;;;;;36.64;47.97;97951.34;4868292;29;20428;-72
2022/09/12 07:24:58;;;;;;;20.58;16.73;;;;;;;36.24;48.37;97947.91;4852631;29;20057;-70
2022/09/12 07:28:08;;;;;;;20.75;16.05;;;;;;;36.41;47.85;97938.66;4873968;29;20052;-73
2022/09/12 07:31:16;;;;;;;22.80;17.35;;;;;;;36.38;51.07;97939.50;4859108;29;20110;-71
2022/09/12 07:34:26;;;;;;;24.92;17.25;;;;;;;35.85;49.93;97926.47;4872184;29;20049;-75
2022/09/12 07:37:37;;;;;;;23.83;17.00;;;;;;;36.30;47.37;97931.53;4873160;29;20056;-72
2022/09/12 07:40:41;;;;;;;20.05;17.73;;;;;;;36.63;50.50;97922.59;4873634;29;20810;-73
2022/09/12 07:43:51;;;;;;;19.33;16.73;;;;;;;36.45;47.67;97922.66;4865567;29;20060;-72
2022/09/12 07:46:54;;;;;;;31.60;17.23;;;;;;;36.58;49.41;97916.63;4872058;29;20057;-72
2022/09/12 07:50:05;;;;;;;21.00;16.13;;;;;;;36.50;48.35;97912.25;4868424;29;20593;-73
2022/09/12 07:53:11;;;;;;;19.73;16.35;;;;;;;36.44;47.91;97904.31;4868711;29;20563;-71
2022/09/12 07:56:28;;;;;;;23.88;16.83;;;;;;;36.09;49.05;97904.44;4864848;29;20057;-73
2022/09/12 07:59:41;;;;;;;20.00;15.70;;;;;;;36.24;46.98;97900.44;4871361;29;20129;-74
2022/09/12 08:02:59;;;;;;;23.25;17.23;;;;;;;35.92;48.73;97897.72;4862430;29;20057;-73
2022/09/12 08:06:10;;;;;;;23.83;15.90;;;;;;;36.46;51.25;97895.53;4852601;29;20053;-75
2022/09/12 08:09:20;;;;;;;24.13;17.77;;;;;;;36.37;47.59;97898.75;4866454;29;20812;-71
2022/09/12 08:12:23;;;;;;;22.00;16.77;;;;;;;36.26;50.11;97884.84;4867413;29;20041;-71
2022/09/12 08:15:33;;;;;;;19.38;17.15;;;;;;;36.47;49.42;97885.94;4867864;29;20076;-71
2022/09/12 08:18:36;;;;;;;19.70;16.23;;;;;;;36.21;49.17;97878.88;4869274;29;20057;-73
2022/09/12 08:21:47;;;;;;;19.83;15.73;;;;;;;36.07;47.39;97874.91;4868375;29;20056;-72
2022/09/12 08:24:57;;;;;;;21.17;16.58;;;;;;;36.56;49.02;97871.53;4855514;29;20076;-74
2022/09/12 08:28:00;;;;;;;20.75;16.98;;;;;;;36.14;49.49;97876.09;4870744;29;20092;-73
2022/09/12 08:31:15;;;;;;;20.33;17.48;;;;;;;36.05;48.94;97868.94;4864260;29;20045;-71
2022/09/12 08:34:18;;;;;;;23.58;17.95;;;;;;;36.31;49.30;97864.06;4864328;29;20112;-70
2022/09/12 08:37:30;;;;;;;19.05;15.80;;;;;;;36.12;48.95;97861.75;4855059;29;20049;-70
2022/09/12 08:40:33;;;;;;;23.23;16.30;;;;;;;35.83;47.13;97857.06;4864435;29;20049;-71
2022/09/12 08:44:11;;;;;;;21.13;15.43;;;;;;;36.04;47.94;97853.41;4858489;29;20190;-71
2022/09/12 08:47:22;;;;;;;24.20;15.77;;;;;;;35.86;46.63;97859.03;4866852;29;20056;-70
2022/09/12 08:50:32;;;;;;;21.95;14.93;;;;;;;36.07;48.13;97852.56;4868291;29;20082;-71
2022/09/12 08:53:37;;;;;;;16.63;14.82;;;;;;;35.96;48.62;97851.03;4865853;29;20049;-73
2022/09/12 08:56:48;;;;;;;19.60;14.25;;;;;;;35.81;46.85;97842.72;4856274;29;20069;-71
2022/09/12 08:59:59;;;;;;;22.73;16.10;;;;;;;35.95;50.34;97843.88;4870246;29;20077;-72
2022/09/12 09:03:06;;;;;;;24.40;16.38;;;;;;;35.82;52.77;97840.72;4864966;29;20041;-73
2022/09/12 09:06:59;;;;;;;28.05;16.55;;;;;;;35.64;51.43;97840.75;4865626;29;20128;-75
2022/09/12 09:10:27;;;;;;;21.15;16.77;;;;;;;35.92;50.72;97834.28;4872324;29;20053;-74
2022/09/12 09:14:47;;;;;;;21.55;14.73;;;;;;;35.93;48.15;97835.88;4860398;29;20100;-74
2022/09/12 09:18:16;;;;;;;18.63;15.23;;;;;;;35.57;50.32;97830.41;4814592;29;20490;-74
2022/09/12 09:22:01;;;;;;;23.77;15.70;;;;;;;35.92;47.61;97830.72;4809831;29;20201;-73
2022/09/12 09:25:16;;;;;;;24.67;15.90;;;;;;;35.79;48.55;97825.59;4872147;29;20078;-73
2022/09/12 09:28:36;;;;;;;25.98;17.02;;;;;;;35.61;48.71;97824.81;4861218;29;20499;-74
2022/09/12 09:31:44;;;;;;;24.15;16.90;;;;;;;35.39;50.12;97824.88;4867996;29;20071;-73
2022/09/12 09:34:56;;;;;;;20.80;15.50;;;;;;;35.47;50.30;97822.88;4884860;29;20473;-74
2022/09/12 09:38:24;;;;;;;26.20;16.42;;;;;;;35.68;48.68;97808.06;4878243;29;20132;-75
2022/09/12 09:41:50;;;;;;;21.92;17.00;;;;;;;35.69;46.08;97801.28;4855685;29;20044;-72
2022/09/12 09:45:04;;;;;;;22.25;16.70;;;;;;;35.60;48.07;97800.88;4888532;29;20131;-73
2022/09/12 09:48:26;;;;;;;19.75;15.98;;;;;;;35.82;47.21;97790.47;4889121;29;20052;-71
2022/09/12 09:51:44;;;;;;;22.95;16.60;;;;;;;35.30;49.29;97779.84;4872494;29;20040;-72
2022/09/12 09:54:56;;;;;;;20.33;15.27;;;;;;;35.56;47.37;97783.34;4875692;29;20048;-72
2022/09/12 09:58:12;;;;;;;24.58;16.35;;;;;;;35.51;47.06;97775.41;4850961;29;20783;-72
2022/09/12 10:01:26;;;;;;;20.83;16.45;;;;;;;35.70;46.79;97769.38;4848352;29;20052;-73
2022/09/12 10:04:41;;;;;;;21.38;15.27;;;;;;;35.72;48.25;97769.00;4872358;29;20068;-71
2022/09/12 10:07:51;;;;;;;23.75;16.10;;;;;;;35.62;50.56;97760.22;4875763;29;20053;-72
2022/09/12 10:11:07;;;;;;;21.58;17.23;;;;;;;35.50;48.97;97769.03;4875621;29;20172;-73
2022/09/12 10:14:39;;;;;;;25.60;17.48;;;;;;;35.66;49.47;97752.63;4877430;29;20536;-71
2022/09/12 10:17:54;;;;;;;24.30;18.20;;;;;;;35.56;50.69;97750.69;4896566;29;20492;-72
2022/09/12 10:21:16;;;;;;;38.15;22.77;;;;;;;35.67;52.19;97745.03;4892771;29;20147;-73
2022/09/12 10:24:37;;;;;;;41.25;25.23;;;;;;;35.65;50.61;97741.84;4892640;29;20191;-72
2022/09/12 10:27:42;;;;;;;38.30;25.80;;;;;;;35.62;51.07;97737.91;4893589;29;20056;-73
2022/09/12 10:31:01;;;;;;;43.53;24.42;;;;;;;35.45;53.87;97733.19;4894381;29;20056;-73
2022/09/12 10:34:04;;;;;;;44.08;25.70;;;;;;;35.39;54.43;97735.59;4884196;29;20048;-73
2022/09/12 10:37:38;;;;;;;41.47;27.33;;;;;;;35.24;53.34;97728.47;4870930;29;20058;-73
2022/09/12 10:41:08;;;;;;;45.33;28.13;;;;;;;35.16;53.74;97727.66;4856908;29;20060;-73
2022/09/12 10:44:24;;;;;;;88.45;28.60;;;;;;;35.37;55.15;97729.63;4845557;29;20128;-73
2022/09/12 10:47:33;;;;;;;49.90;27.20;;;;;;;35.49;53.91;97722.81;4858159;29;20716;-73
2022/09/12 10:50:49;;;;;;;42.65;27.25;;;;;;;35.44;55.50;97729.56;4834560;29;20121;-73
2022/09/12 10:54:01;;;;;;;46.15;26.67;;;;;;;35.22;53.76;97725.28;4855103;29;20117;-73
2022/09/12 10:57:25;;;;;;;44.50;26.92;;;;;;;35.55;54.89;97718.38;4856217;29;20863;-74
2022/09/12 11:00:50;;;;;;;44.50;27.02;;;;;;;35.30;54.04;97715.69;4861001;29;20105;-74
2022/09/12 11:04:23;;;;;;;43.95;25.63;;;;;;;35.43;55.55;97711.25;4846723;29;20600;-73
2022/09/12 11:07:47;;;;;;;37.67;24.98;;;;;;;35.27;55.14;97708.13;4858783;29;20049;-73
2022/09/12 11:11:36;;;;;;;44.85;25.73;;;;;;;35.23;54.75;97707.34;4858769;29;20583;-73
2022/09/12 11:14:55;;;;;;;37.08;24.83;;;;;;;34.96;54.86;97712.56;4856452;29;20134;-74
2022/09/12 11:18:24;;;;;;;43.17;23.30;;;;;;;34.88;54.69;97707.00;4856916;29;20064;-72
2022/09/12 11:21:33;;;;;;;41.40;25.13;;;;;;;35.02;55.10;97710.97;4857205;29;20577;-73
2022/09/12 11:25:21;;;;;;;33.75;22.33;;;;;;;34.80;54.17;97710.22;4872841;29;20056;-72
2022/09/12 13:42:07;;;;;;;33.88;23.55;;;;;;;32.06;63.78;97704.56;4749550;27;10001859;-68
2022/09/12 13:45:44;;;;;;;29.58;21.05;;;;;;;32.22;62.61;97695.97;4972163;28;20428;-71
2022/09/12 13:49:01;;;;;;;22.23;16.98;;;;;;;32.28;61.29;97700.78;5019003;28;20052;-74
2022/09/12 13:52:29;;;;;;;27.45;17.38;;;;;;;32.23;61.65;97703.13;5009326;28;20136;-75
2022/09/12 13:55:47;;;;;;;21.52;16.13;;;;;;;32.18;61.57;97718.94;5019740;28;20062;-73
2022/09/12 13:59:06;;;;;;;29.55;16.52;;;;;;;32.06;61.19;97708.13;5014806;28;20121;-76
2022/09/12 14:02:21;;;;;;;24.33;16.48;;;;;;;32.12;62.37;97716.91;5038929;28;20415;-71
2022/09/12 14:05:34;;;;;;;31.02;17.15;;;;;;;32.22;62.30;97720.94;5024315;28;20099;-74
2022/09/12 14:08:46;;;;;;;32.35;18.17;;;;;;;32.18;63.20;97721.72;5023654;28;20098;-71
2022/09/12 14:12:04;;;;;;;32.78;20.00;;;;;;;32.13;61.97;97724.84;5025346;28;20564;-71
2022/09/12 14:15:28;;;;;;;26.70;18.13;;;;;;;32.09;64.36;97724.00;5025938;28;20045;-70
2022/09/12 14:18:46;;;;;;;35.35;18.63;;;;;;;32.05;63.51;97723.19;5006473;28;20141;-73
2022/09/12 14:21:57;;;;;;;32.75;18.30;;;;;;;32.05;63.58;97725.97;5009298;28;20050;-74
2022/09/12 14:25:02;;;;;;;28.13;19.23;;;;;;;31.92;63.57;97725.41;5009092;28;20088;-74
2022/09/12 14:28:17;;;;;;;35.88;18.13;;;;;;;31.77;62.92;97740.28;5038391;28;20045;-70
2022/09/12 14:31:36;;;;;;;25.40;17.40;;;;;;;31.79;63.84;97747.03;5022868;28;20046;-72
2022/09/12 14:35:11;;;;;;;31.13;17.60;;;;;;;31.97;62.91;97747.25;5025845;28;20803;-69
2022/09/12 14:38:36;;;;;;;;;;;;;;;31.99;63.79;97753.22;5013533;28;20175;-69
2022/09/12 14:41:58;;;;;;;30.63;19.30;;;;;;;31.66;64.79;97756.00;5014523;28;20664;-70
2022/09/12 14:45:31;;;;;;;38.00;20.40;;;;;;;31.81;64.97;97757.78;4998411;28;20037;-71
2022/09/12 14:48:58;;;;;;;33.15;19.27;;;;;;;31.79;64.29;97765.66;4993109;28;20038;-71
2022/09/12 14:52:33;;;;;;;32.60;20.35;;;;;;;31.91;65.37;97772.94;4999955;28;20041;-70
2022/09/12 14:55:40;;;;;;;35.08;20.33;;;;;;;31.84;64.52;97783.97;5004983;28;20057;-70
2022/09/12 14:58:50;;;;;;;28.47;19.17;;;;;;;31.93;64.27;97781.69;5004181;28;20440;-71
2022/09/12 15:02:27;;;;;;;37.00;19.55;;;;;;;31.92;64.27;97777.31;4994111;28;20053;-71
2022/09/12 15:05:32;;;;;;;28.80;18.95;;;;;;;31.87;63.81;97777.66;5001085;28;20060;-71
2022/09/12 15:08:48;;;;;;;32.92;19.58;;;;;;;31.81;62.82;97777.19;4996332;28;20085;-70
2022/09/12 15:11:46;;;;;;;26.58;18.65;;;;;;;31.78;62.63;97775.97;5007049;28;20054;-71
2022/09/12 15:15:11;;;;;;;34.60;19.83;;;;;;;31.82;61.91;97780.78;5007712;28;20112;-71
2022/09/12 15:18:22;;;;;;;31.67;19.75;;;;;;;31.79;62.66;97787.88;5006561;28;20156;-71
2022/09/12 15:21:26;;;;;;;34.78;19.52;;;;;;;31.71;62.63;97798.06;5006645;28;20069;-71
2022/09/12 15:24:38;;;;;;;35.55;19.20;;;;;;;31.67;61.55;97805.56;5007158;28;20056;-71
2022/09/12 15:27:54;;;;;;;29.85;19.35;;;;;;;31.69;62.08;97811.53;5005851;28;20050;-72
2022/09/12 15:31:02;;;;;;;27.33;19.83;;;;;;;31.65;62.66;97813.47;5009076;28;20049;-71
2022/09/12 15:34:18;;;;;;;25.60;18.90;;;;;;;31.60;62.85;97816.56;5002684;28;20058;-71
2022/09/12 15:37:23;;;;;;;27.60;18.92;;;;;;;31.53;61.62;97819.25;5007105;28;20042;-71
2022/09/12 15:40:51;;;;;;;28.38;17.75;;;;;;;31.54;61.81;97820.84;5004148;28;20046;-71
2022/09/12 15:44:03;;;;;;;33.55;18.65;;;;;;;31.49;60.57;97827.53;5005089;28;20042;-71
2022/09/12 15:47:22;;;;;;;26.77;18.10;;;;;;;31.54;62.23;97837.47;5014633;28;20735;-70
2022/09/12 15:50:38;;;;;;;27.17;18.10;;;;;;;31.41;61.93;97840.47;5010784;28;20061;-71
2022/09/12 15:53:58;;;;;;;29.83;18.77;;;;;;;31.31;62.48;97848.59;5000933;28;20057;-70
2022/09/12 15:57:08;;;;;;;27.17;19.33;;;;;;;31.33;62.19;97849.81;5016539;28;20049;-71
2022/09/12 16:00:19;;;;;;;44.55;19.63;;;;;;;31.47;61.21;97854.00;5028451;28;20369;-71
2022/09/12 16:03:29;;;;;;;27.55;19.40;;;;;;;31.42;61.94;97847.59;5013713;28;20496;-71
2022/09/12 16:06:33;;;;;;;33.28;19.65;;;;;;;31.41;62.18;97850.72;5008478;28;20038;-71
2022/09/12 16:09:42;;;;;;;30.60;19.55;;;;;;;31.35;63.21;97849.44;5036037;28;20485;-72
2022/09/12 16:12:46;;;;;;;32.00;19.60;;;;;;;31.38;62.72;97851.50;5044918;28;20583;-70
2022/09/12 16:15:57;;;;;;;27.02;19.00;;;;;;;31.47;63.02;97859.56;5028521;28;20053;-72
2022/09/12 16:19:01;;;;;;;33.78;18.35;;;;;;;31.41;63.03;97862.63;5023726;28;20187;-71
2022/09/12 16:22:11;;;;;;;46.30;20.67;;;;;;;31.38;63.07;97857.81;5024994;28;20497;-71
2022/09/12 16:25:24;;;;;;;24.23;17.63;;;;;;;31.28;63.47;97854.88;4981356;28;20124;-72
2022/09/12 16:28:22;;;;;;;30.98;18.52;;;;;;;31.30;64.95;97850.59;4980738;28;20057;-72
2022/09/12 16:31:37;;;;;;;27.35;18.33;;;;;;;31.29;64.54;97860.06;5023620;28;20067;-70
2022/09/12 16:34:40;;;;;;;29.60;18.77;;;;;;;31.23;64.89;97861.56;5026353;28;20067;-71